createdAt,value
2022-11-10T00:02:10.353Z,10.81
2022-11-10T00:04:38.095Z,10.82
2022-11-10T00:07:06.144Z,10.81
2022-11-10T00:09:33.973Z,10.83
2022-11-10T00:12:07.904Z,10.76
2022-11-10T00:14:54.208Z,10.85
2022-11-10T00:17:21.980Z,10.79
2022-11-10T00:19:49.958Z,10.88
2022-11-10T00:22:17.647Z,10.84
2022-11-10T00:24:45.610Z,10.85
2022-11-10T00:27:14.659Z,10.86
2022-11-10T00:29:43.938Z,10.88
2022-11-10T00:32:11.923Z,10.84
2022-11-10T00:34:39.731Z,10.85
2022-11-10T00:37:07.489Z,10.89
2022-11-10T00:39:35.187Z,10.89
2022-11-10T00:42:03.768Z,10.88
2022-11-10T00:44:31.575Z,10.91
2022-11-10T00:47:01.032Z,10.92
2022-11-10T00:49:28.962Z,10.92
2022-11-10T00:51:56.997Z,10.94
2022-11-10T00:54:24.962Z,10.94
2022-11-10T00:56:52.697Z,10.95
2022-11-10T00:59:20.384Z,10.95
2022-11-10T01:01:48.195Z,10.93
2022-11-10T01:04:17.249Z,10.89
2022-11-10T01:06:48.085Z,10.91
2022-11-10T01:09:16.010Z,10.91
2022-11-10T01:11:43.765Z,10.92
2022-11-10T01:14:11.523Z,10.84
2022-11-10T01:16:39.327Z,10.86
2022-11-10T01:19:07.036Z,10.83
2022-11-10T01:21:36.629Z,10.82
2022-11-10T01:24:04.650Z,10.85
2022-11-10T01:26:32.453Z,10.80
2022-11-10T01:29:00.854Z,10.81
2022-11-10T01:31:28.628Z,10.78
2022-11-10T01:33:56.306Z,10.74
2022-11-10T01:36:24.034Z,10.71
2022-11-10T01:38:53.151Z,10.74
2022-11-10T01:41:20.930Z,10.72
2022-11-10T01:43:48.650Z,10.70
2022-11-10T01:46:16.843Z,10.73
2022-11-10T01:48:46.741Z,10.72
2022-11-10T01:51:19.460Z,10.67
2022-11-10T01:53:51.639Z,10.64
2022-11-10T01:56:22.510Z,10.59
2022-11-10T01:58:54.958Z,10.63
2022-11-10T02:01:23.925Z,10.63
2022-11-10T02:03:54.785Z,10.57
2022-11-10T02:06:27.822Z,10.63
2022-11-10T02:08:57.013Z,10.65
2022-11-10T02:11:26.473Z,10.55
2022-11-10T02:13:55.077Z,10.62
2022-11-10T02:16:23.121Z,10.70
2022-11-10T02:18:50.959Z,10.67
2022-11-10T02:21:21.448Z,10.62
2022-11-10T02:23:51.246Z,10.62
2022-11-10T02:26:23.111Z,10.65
2022-11-10T02:28:50.954Z,10.61
2022-11-10T02:31:18.780Z,10.63
2022-11-10T02:33:46.512Z,10.62
2022-11-10T02:36:15.141Z,10.63
2022-11-10T02:38:44.239Z,10.59
2022-11-10T02:41:12.375Z,10.58
2022-11-10T02:43:40.507Z,10.53
2022-11-10T02:46:08.389Z,10.58
2022-11-10T02:48:36.558Z,10.61
2022-11-10T02:51:04.621Z,10.67
2022-11-10T02:53:32.515Z,10.66
2022-11-10T02:56:01.577Z,10.62
2022-11-10T02:58:29.295Z,10.55
2022-11-10T03:00:57.124Z,10.51
2022-11-10T03:03:25.258Z,10.47
2022-11-10T03:05:53.094Z,10.45
2022-11-10T03:08:20.811Z,10.41
2022-11-10T03:10:48.824Z,10.41
2022-11-10T03:13:18.049Z,10.44
2022-11-10T03:15:47.902Z,10.42
2022-11-10T03:18:15.732Z,10.42
2022-11-10T03:20:43.557Z,10.38
2022-11-10T03:23:11.620Z,10.39
2022-11-10T03:25:39.542Z,10.42
2022-11-10T03:28:07.472Z,10.44
2022-11-10T03:30:36.644Z,10.47
2022-11-10T03:33:04.613Z,10.52
2022-11-10T03:35:32.715Z,10.55
2022-11-10T03:38:00.775Z,10.48
2022-11-10T03:40:29.254Z,10.56
2022-11-10T03:42:57.053Z,10.54
2022-11-10T03:45:24.800Z,10.50
2022-11-10T03:47:54.032Z,10.44
2022-11-10T03:50:21.737Z,10.32
2022-11-10T03:52:49.692Z,10.27
2022-11-10T03:55:19.484Z,10.34
2022-11-10T03:57:47.556Z,10.28
2022-11-10T04:00:16.322Z,10.26
2022-11-10T04:02:44.088Z,10.21
2022-11-10T04:05:30.343Z,10.20
2022-11-10T04:08:19.864Z,10.16
2022-11-10T04:10:47.863Z,10.03
2022-11-10T04:13:33.147Z,10.02
2022-11-10T04:16:01.678Z,10.01
2022-11-10T04:18:29.729Z,10.00
2022-11-10T04:21:00.859Z,9.89
2022-11-10T04:23:31.003Z,9.88
2022-11-10T04:26:18.879Z,9.85
2022-11-10T04:28:47.698Z,9.79
2022-11-10T04:31:16.817Z,9.76
2022-11-10T04:33:45.663Z,9.69
2022-11-10T04:36:16.658Z,9.72
2022-11-10T04:38:44.728Z,9.76
2022-11-10T04:41:12.925Z,9.86
2022-11-10T04:43:41.113Z,9.87
2022-11-10T04:46:19.676Z,9.94
2022-11-10T04:48:47.504Z,10.01
2022-11-10T04:51:17.295Z,10.04
2022-11-10T04:53:45.077Z,10.08
2022-11-10T04:56:15.884Z,10.14
2022-11-10T04:58:43.972Z,10.15
2022-11-10T05:01:12.913Z,10.13
2022-11-10T05:03:41.039Z,10.03
2022-11-10T05:06:09.844Z,10.10
2022-11-10T05:08:39.957Z,9.99
2022-11-10T05:11:08.045Z,9.91
2022-11-10T05:13:35.784Z,9.88
2022-11-10T05:16:03.966Z,9.84
2022-11-10T05:18:31.701Z,9.80
2022-11-10T05:20:59.453Z,9.75
2022-11-10T05:23:39.344Z,9.78
2022-11-10T05:26:10.290Z,9.73
2022-11-10T05:28:38.517Z,9.67
2022-11-10T05:31:06.763Z,9.72
2022-11-10T05:33:34.668Z,9.68
2022-11-10T05:36:03.173Z,9.61
2022-11-10T05:38:31.234Z,9.57
2022-11-10T05:40:59.068Z,9.48
2022-11-10T05:43:28.168Z,9.41
2022-11-10T05:45:55.859Z,9.56
2022-11-10T05:48:23.721Z,9.57
2022-11-10T05:50:51.799Z,9.53
2022-11-10T05:53:20.539Z,9.50
2022-11-10T05:55:48.482Z,9.48
2022-11-10T05:58:16.496Z,9.35
2022-11-10T06:00:45.942Z,9.27
2022-11-10T06:03:15.987Z,9.22
2022-11-10T06:05:44.251Z,9.03
2022-11-10T06:08:12.733Z,8.82
2022-11-10T06:10:41.002Z,8.78
2022-11-10T06:13:10.592Z,8.76
2022-11-10T06:15:38.780Z,8.71
2022-11-10T06:18:08.209Z,8.70
2022-11-10T06:20:36.438Z,8.61
2022-11-10T06:23:05.761Z,8.68
2022-11-10T06:25:35.478Z,8.65
2022-11-10T06:28:03.853Z,8.63
2022-11-10T06:30:33.411Z,8.58
2022-11-10T06:33:01.499Z,8.57
2022-11-10T06:35:31.222Z,8.55
2022-11-10T06:38:00.800Z,8.54
2022-11-10T06:40:29.042Z,8.49
2022-11-10T06:42:57.136Z,8.45
2022-11-10T06:45:28.246Z,8.38
2022-11-10T06:48:03.232Z,8.28
2022-11-10T06:50:32.535Z,8.31
2022-11-10T06:53:01.225Z,8.38
2022-11-10T06:55:29.708Z,8.19
2022-11-10T06:57:57.759Z,8.26
2022-11-10T07:00:27.608Z,8.32
2022-11-10T07:03:02.880Z,8.43
2022-11-10T07:05:33.584Z,8.38
2022-11-10T07:08:05.367Z,8.60
2022-11-10T07:10:33.893Z,8.59
2022-11-10T07:13:03.320Z,8.50
2022-11-10T07:15:31.678Z,8.60
2022-11-10T07:17:59.805Z,8.65
2022-11-10T07:20:28.389Z,8.66
2022-11-10T07:23:00.801Z,8.74
2022-11-10T07:25:30.517Z,8.84
2022-11-10T07:28:00.097Z,8.97
2022-11-10T07:30:28.184Z,9.17
2022-11-10T07:33:00.509Z,9.37
2022-11-10T07:35:29.506Z,9.21
2022-11-10T07:37:57.543Z,9.25
2022-11-10T07:40:26.695Z,9.64
2022-11-10T07:42:54.500Z,9.78
2022-11-10T07:45:22.271Z,9.97
2022-11-10T07:47:50.282Z,10.12
2022-11-10T07:50:18.705Z,10.33
2022-11-10T07:52:46.510Z,10.19
2022-11-10T07:55:14.340Z,10.13
2022-11-10T07:57:43.581Z,10.09
2022-11-10T08:00:13.543Z,10.26
2022-11-10T08:02:41.557Z,10.13
2022-11-10T08:05:10.274Z,10.31
2022-11-10T08:07:38.149Z,10.37
2022-11-10T08:10:06.782Z,10.45
2022-11-10T08:12:34.667Z,10.48
2022-11-10T08:15:04.589Z,10.57
2022-11-10T08:17:32.830Z,10.45
2022-11-10T08:20:00.563Z,10.39
2022-11-10T08:22:28.297Z,10.47
2022-11-10T08:24:56.068Z,10.61
2022-11-10T08:27:23.737Z,10.91
2022-11-10T08:29:51.471Z,10.99
2022-11-10T08:32:21.564Z,11.00
2022-11-10T08:34:49.277Z,11.04
2022-11-10T08:37:17.035Z,11.01
2022-11-10T08:39:44.729Z,10.79
2022-11-10T08:42:12.409Z,10.92
2022-11-10T08:44:40.189Z,11.01
2022-11-10T08:47:07.946Z,11.14
2022-11-10T08:49:37.053Z,11.22
2022-11-10T08:52:05.047Z,11.10
2022-11-10T08:54:32.708Z,11.07
2022-11-10T08:57:00.426Z,11.23
2022-11-10T08:59:28.150Z,11.21
2022-11-10T09:01:55.896Z,11.50
2022-11-10T09:04:23.720Z,11.17
2022-11-10T09:06:52.893Z,11.49
2022-11-10T09:09:20.659Z,11.56
2022-11-10T09:11:48.325Z,11.41
2022-11-10T09:14:16.399Z,11.58
2022-11-10T09:16:44.132Z,11.57
2022-11-10T09:19:15.521Z,11.62
2022-11-10T09:21:47.240Z,11.67
2022-11-10T09:24:16.385Z,11.65
2022-11-10T09:26:47.458Z,11.63
2022-11-10T09:29:15.286Z,11.67
2022-11-10T09:31:44.648Z,11.72
2022-11-10T09:34:12.445Z,11.74
2022-11-10T09:36:40.652Z,11.66
2022-11-10T09:39:08.985Z,11.44
2022-11-10T09:41:41.952Z,11.46
2022-11-10T09:44:17.300Z,11.55
2022-11-10T09:46:49.316Z,11.62
2022-11-10T09:49:24.894Z,11.80
2022-11-10T09:51:53.998Z,11.81
2022-11-10T09:54:36.929Z,11.90
2022-11-10T09:57:08.092Z,11.74
2022-11-10T09:59:36.367Z,11.69
2022-11-10T10:02:13.017Z,11.85
2022-11-10T10:05:04.600Z,11.73
2022-11-10T10:07:41.798Z,11.94
2022-11-10T10:10:17.572Z,11.60
2022-11-10T10:13:01.303Z,12.00
2022-11-10T10:15:39.619Z,11.99
2022-11-10T10:18:20.334Z,12.06
2022-11-10T10:21:04.049Z,11.94
2022-11-10T10:24:07.008Z,11.91
2022-11-10T10:26:28.291Z,11.99
2022-11-10T10:29:01.264Z,11.80
2022-11-10T10:31:35.691Z,11.81
2022-11-10T10:34:05.166Z,11.93
2022-11-10T10:36:32.991Z,11.99
2022-11-10T10:39:03.889Z,11.93
2022-11-10T10:41:34.649Z,11.64
2022-11-10T10:44:11.744Z,11.54
2022-11-10T10:46:46.538Z,11.55
2022-11-10T10:49:33.023Z,11.60
2022-11-10T10:52:06.216Z,11.76
2022-11-10T10:54:35.792Z,12.08
2022-11-10T10:57:06.428Z,12.16
2022-11-10T10:59:35.612Z,11.96
2022-11-10T11:02:03.349Z,11.88
2022-11-10T11:04:34.915Z,11.95
2022-11-10T11:07:06.966Z,12.08
2022-11-10T11:09:40.888Z,11.95
2022-11-10T11:12:11.900Z,11.94
2022-11-10T11:14:45.834Z,12.24
2022-11-10T11:17:19.401Z,12.15
2022-11-10T11:19:47.368Z,12.21
2022-11-10T11:22:42.094Z,12.12
2022-11-10T11:25:19.572Z,11.92
2022-11-10T11:27:57.178Z,12.00
2022-11-10T11:30:30.162Z,12.31
2022-11-10T11:33:29.046Z,12.20
2022-11-10T11:36:02.756Z,12.29
2022-11-10T11:38:33.394Z,12.55
2022-11-10T11:41:14.008Z,12.50
2022-11-10T11:44:01.160Z,12.42
2022-11-10T11:46:43.568Z,12.49
2022-11-10T11:49:39.621Z,12.72
2022-11-10T11:52:13.117Z,12.77
2022-11-10T11:54:58.206Z,12.88
2022-11-10T11:57:40.427Z,12.65
2022-11-10T12:00:11.525Z,12.70
2022-11-10T12:03:12.065Z,12.93
2022-11-10T12:05:53.296Z,12.79
2022-11-10T12:08:33.461Z,12.82
2022-11-10T12:11:11.888Z,13.00
2022-11-10T12:13:49.166Z,13.39
2022-11-10T12:16:21.487Z,13.47
2022-11-10T12:18:56.474Z,13.31
2022-11-10T12:21:26.431Z,13.50
2022-11-10T12:24:11.573Z,13.55
2022-11-10T12:26:46.626Z,13.46
2022-11-10T12:29:28.983Z,13.26
2022-11-10T12:32:04.264Z,12.59
2022-11-10T12:34:40.865Z,12.23
2022-11-10T12:37:16.023Z,12.07
2022-11-10T12:39:51.000Z,12.45
2022-11-10T12:42:22.995Z,12.18
2022-11-10T12:45:00.719Z,12.48
2022-11-10T12:47:32.906Z,12.83
2022-11-10T12:50:20.509Z,13.06
2022-11-10T12:52:54.539Z,13.41
2022-11-10T12:55:37.127Z,13.44
2022-11-10T12:58:07.255Z,13.38
2022-11-10T13:00:43.079Z,13.63
2022-11-10T13:03:17.129Z,13.42
2022-11-10T13:05:56.794Z,13.61
2022-11-10T13:08:32.878Z,13.19
2022-11-10T13:11:04.978Z,13.61
2022-11-10T13:13:41.956Z,13.45
2022-11-10T13:16:11.421Z,13.24
2022-11-10T13:19:00.520Z,13.14
2022-11-10T13:22:09.972Z,13.15
2022-11-10T13:24:39.549Z,12.90
2022-11-10T13:27:12.515Z,12.78
2022-11-10T13:29:56.295Z,12.74
2022-11-10T13:32:27.970Z,12.63
2022-11-10T13:34:56.225Z,12.49
2022-11-10T13:37:50.514Z,12.34
2022-11-10T13:40:29.467Z,12.23
2022-11-10T13:43:24.665Z,12.30
2022-11-10T13:46:03.844Z,12.21
2022-11-10T13:49:03.315Z,12.23
2022-11-10T13:51:42.512Z,12.50
2022-11-10T13:54:31.030Z,12.41
2022-11-10T13:57:21.294Z,12.34
2022-11-10T13:59:53.108Z,11.96
2022-11-10T14:03:01.236Z,12.08
2022-11-10T14:06:12.029Z,12.05
2022-11-10T14:08:43.987Z,11.98
2022-11-10T14:11:21.692Z,11.85
2022-11-10T14:13:55.472Z,11.59
2022-11-10T14:16:26.200Z,11.43
2022-11-10T14:18:59.959Z,11.32
2022-11-10T14:21:33.463Z,11.04
2022-11-10T14:24:11.985Z,11.13
2022-11-10T14:26:45.441Z,11.22
2022-11-10T14:29:28.329Z,11.10
2022-11-10T14:31:56.899Z,11.01
2022-11-10T14:34:24.888Z,11.08
2022-11-10T14:36:55.380Z,10.88
2022-11-10T14:39:29.349Z,10.94
2022-11-10T14:42:00.299Z,10.89
2022-11-10T14:44:30.168Z,10.85
2022-11-10T14:47:13.577Z,10.73
2022-11-10T14:49:41.385Z,10.90
2022-11-10T14:52:15.165Z,10.77
2022-11-10T14:54:46.546Z,10.68
2022-11-10T14:57:19.874Z,10.67
2022-11-10T14:59:48.481Z,10.73
2022-11-10T15:02:18.669Z,10.87
2022-11-10T15:04:48.947Z,10.78
2022-11-10T15:07:17.822Z,10.54
2022-11-10T15:10:12.559Z,10.62
2022-11-10T15:12:42.319Z,10.60
2022-11-10T15:15:21.708Z,10.47
2022-11-10T15:17:51.345Z,10.43
2022-11-10T15:20:33.991Z,10.47
2022-11-10T15:23:03.481Z,10.29
2022-11-10T15:25:37.628Z,10.34
2022-11-10T15:28:18.566Z,10.33
2022-11-10T15:30:51.256Z,10.33
2022-11-10T15:33:25.236Z,10.32
2022-11-10T15:35:53.830Z,10.27
2022-11-10T15:38:28.814Z,10.32
2022-11-10T15:41:13.531Z,10.25
2022-11-10T15:43:42.949Z,10.22
2022-11-10T15:46:17.820Z,10.21
2022-11-10T15:48:48.665Z,10.18
2022-11-10T15:51:21.472Z,10.14
2022-11-10T15:53:52.986Z,10.05
2022-11-10T15:56:22.706Z,9.95
2022-11-10T15:58:57.677Z,9.95
2022-11-10T16:01:28.585Z,9.85
2022-11-10T16:03:56.357Z,9.85
2022-11-10T16:06:24.072Z,9.79
2022-11-10T16:08:51.817Z,9.71
2022-11-10T16:11:22.000Z,9.70
2022-11-10T16:13:53.379Z,9.67
2022-11-10T16:16:23.759Z,9.66
2022-11-10T16:18:52.228Z,9.66
2022-11-10T16:21:21.901Z,9.64
2022-11-10T16:23:49.938Z,9.65
2022-11-10T16:26:21.182Z,9.59
2022-11-10T16:28:49.445Z,9.59
2022-11-10T16:31:21.855Z,9.55
2022-11-10T16:33:50.715Z,9.37
2022-11-10T16:36:24.674Z,9.38
2022-11-10T16:38:53.077Z,9.36
2022-11-10T16:41:20.855Z,9.33
2022-11-10T16:43:48.955Z,9.22
2022-11-10T16:46:23.035Z,9.25
2022-11-10T16:48:53.392Z,9.26
2022-11-10T16:51:28.386Z,9.22
2022-11-10T16:53:56.130Z,9.16
2022-11-10T16:56:23.880Z,9.28
2022-11-10T16:58:51.686Z,9.17
2022-11-10T17:01:24.745Z,9.15
2022-11-10T17:03:55.422Z,9.09
2022-11-10T17:06:25.555Z,9.08
2022-11-10T17:08:55.315Z,9.07
2022-11-10T17:11:24.012Z,9.04
2022-11-10T17:13:51.726Z,9.08
2022-11-10T17:16:28.301Z,9.05
2022-11-10T17:18:57.453Z,9.02
2022-11-10T17:21:28.589Z,9.00
2022-11-10T17:24:01.383Z,8.95
2022-11-10T17:26:30.506Z,8.95
2022-11-10T17:28:58.665Z,8.84
2022-11-10T17:31:27.783Z,8.89
2022-11-10T17:33:55.475Z,8.92
2022-11-10T17:36:24.502Z,8.87
2022-11-10T17:38:52.991Z,8.88
2022-11-10T17:41:21.211Z,8.84
2022-11-10T17:43:48.934Z,8.85
2022-11-10T17:46:16.940Z,8.82
2022-11-10T17:48:47.580Z,8.78
2022-11-10T17:51:20.129Z,8.77
2022-11-10T17:53:48.009Z,8.65
2022-11-10T17:56:15.744Z,8.60
2022-11-10T17:58:43.538Z,8.61
2022-11-10T18:01:17.440Z,8.53
2022-11-10T18:03:46.753Z,8.49
2022-11-10T18:06:16.262Z,8.52
2022-11-10T18:08:44.483Z,8.46
2022-11-10T18:11:13.748Z,8.46
2022-11-10T18:13:42.543Z,8.52
2022-11-10T18:16:11.267Z,8.59
2022-11-10T18:18:40.151Z,8.56
2022-11-10T18:21:10.552Z,8.58
2022-11-10T18:23:38.375Z,8.62
2022-11-10T18:26:07.008Z,8.63
2022-11-10T18:28:35.654Z,8.65
2022-11-10T18:31:07.752Z,8.58
2022-11-10T18:33:35.338Z,8.58
2022-11-10T18:36:03.077Z,8.65
2022-11-10T18:38:32.249Z,8.64
2022-11-10T18:41:23.541Z,8.63
2022-11-10T18:43:51.265Z,8.60
2022-11-10T18:46:19.010Z,8.50
2022-11-10T18:48:47.498Z,8.48
2022-11-10T18:51:15.643Z,8.53
2022-11-10T18:53:44.753Z,8.49
2022-11-10T18:56:12.411Z,8.44
2022-11-10T18:58:40.156Z,8.38
2022-11-10T19:01:09.375Z,8.40
2022-11-10T19:03:37.900Z,8.39
2022-11-10T19:06:06.696Z,8.35
2022-11-10T19:08:34.455Z,8.33
2022-11-10T19:11:06.878Z,8.32
2022-11-10T19:13:34.633Z,8.24
2022-11-10T19:16:04.887Z,8.22
2022-11-10T19:18:32.727Z,8.31
2022-11-10T19:21:05.309Z,8.16
2022-11-10T19:23:33.381Z,8.08
2022-11-10T19:26:02.117Z,8.11
2022-11-10T19:28:31.887Z,8.05
2022-11-10T19:31:02.752Z,7.97
2022-11-10T19:33:31.413Z,7.97
2022-11-10T19:36:03.218Z,8.00
2022-11-10T19:38:31.277Z,7.99
2022-11-10T19:40:59.171Z,8.05
2022-11-10T19:43:27.006Z,8.03
2022-11-10T19:45:56.131Z,8.09
2022-11-10T19:48:24.088Z,8.11
2022-11-10T19:50:55.389Z,8.02
2022-11-10T19:53:23.511Z,8.02
2022-11-10T19:55:51.571Z,8.00
2022-11-10T19:58:19.383Z,7.89
2022-11-10T20:00:48.156Z,7.91
2022-11-10T20:03:17.286Z,7.89
2022-11-10T20:05:46.591Z,7.90
2022-11-10T20:08:15.600Z,7.82
2022-11-10T20:10:44.949Z,7.81
2022-11-10T20:13:13.319Z,7.88
2022-11-10T20:15:42.188Z,7.83
2022-11-10T20:18:11.362Z,7.88
2022-11-10T20:20:41.463Z,7.87
2022-11-10T20:23:11.842Z,7.81
2022-11-10T20:25:39.986Z,7.84
2022-11-10T20:28:07.728Z,7.75
2022-11-10T20:30:36.449Z,7.70
2022-11-10T20:33:06.073Z,7.58
2022-11-10T20:35:39.771Z,7.54
2022-11-10T20:38:08.872Z,7.38
2022-11-10T20:40:44.452Z,7.37
2022-11-10T20:43:14.777Z,7.39
2022-11-10T20:45:42.696Z,7.51
2022-11-10T20:48:10.389Z,7.58
2022-11-10T20:50:40.985Z,7.65
2022-11-10T20:53:10.384Z,7.59
2022-11-10T20:55:55.924Z,7.50
2022-11-10T20:58:25.680Z,7.54
2022-11-10T21:00:53.519Z,7.51
2022-11-10T21:03:21.725Z,7.46
2022-11-10T21:05:54.503Z,7.49
2022-11-10T21:08:23.907Z,7.50
2022-11-10T21:10:53.241Z,7.49
2022-11-10T21:13:21.090Z,7.42
2022-11-10T21:15:51.484Z,7.36
2022-11-10T21:18:20.689Z,7.37
2022-11-10T21:20:48.498Z,7.41
2022-11-10T21:23:19.106Z,7.29
2022-11-10T21:25:54.563Z,7.37
2022-11-10T21:28:22.477Z,7.33
2022-11-10T21:30:50.370Z,7.37
2022-11-10T21:33:18.864Z,7.28
2022-11-10T21:35:46.602Z,7.33
2022-11-10T21:38:15.882Z,7.41
2022-11-10T21:40:43.725Z,7.42
2022-11-10T21:43:15.698Z,7.39
2022-11-10T21:45:43.474Z,7.37
2022-11-10T21:48:11.167Z,7.37
2022-11-10T21:50:38.853Z,7.43
2022-11-10T21:53:07.689Z,7.48
2022-11-10T21:55:35.410Z,7.54
2022-11-10T21:58:03.150Z,7.61
2022-11-10T22:00:32.577Z,7.58
2022-11-10T22:03:00.846Z,7.67
2022-11-10T22:05:28.869Z,7.71
2022-11-10T22:07:56.565Z,7.74
2022-11-10T22:10:41.906Z,7.78
2022-11-10T22:13:33.194Z,7.86
2022-11-10T22:16:19.027Z,7.98
2022-11-10T22:18:46.903Z,7.93
2022-11-10T22:21:14.764Z,7.95
2022-11-10T22:24:00.162Z,7.86
2022-11-10T22:26:27.860Z,7.91
2022-11-10T22:28:55.563Z,7.90
2022-11-10T22:31:24.663Z,7.88
2022-11-10T22:33:52.420Z,7.85
2022-11-10T22:36:21.693Z,7.84
2022-11-10T22:38:49.710Z,7.88
2022-11-10T22:41:35.541Z,7.87
2022-11-10T22:44:06.653Z,7.90
2022-11-10T22:46:37.816Z,7.93
2022-11-10T22:49:07.843Z,8.01
2022-11-10T22:51:36.250Z,8.08
2022-11-10T22:54:04.974Z,8.15
2022-11-10T22:56:34.051Z,8.14
2022-11-10T22:59:01.718Z,8.17
2022-11-10T23:01:29.681Z,8.13
2022-11-10T23:03:59.678Z,8.24
2022-11-10T23:06:27.724Z,8.26
2022-11-10T23:08:55.738Z,8.29
2022-11-10T23:11:25.009Z,8.25
2022-11-10T23:13:52.893Z,8.21
2022-11-10T23:16:22.516Z,8.12
2022-11-10T23:18:52.328Z,8.17
2022-11-10T23:21:23.902Z,8.15
2022-11-10T23:23:53.499Z,8.13
2022-11-10T23:26:22.690Z,8.09
2022-11-10T23:28:50.862Z,8.07
2022-11-10T23:31:21.674Z,8.02
2022-11-10T23:33:51.575Z,7.94
2022-11-10T23:36:22.484Z,7.95
2022-11-10T23:38:50.658Z,7.87
2022-11-10T23:41:20.997Z,7.87
2022-11-10T23:43:48.745Z,7.83
2022-11-10T23:46:16.816Z,7.82
2022-11-10T23:48:44.520Z,7.80
2022-11-10T23:51:14.325Z,7.75
2022-11-10T23:53:43.659Z,7.71
2022-11-10T23:56:13.737Z,7.67
2022-11-10T23:58:41.845Z,7.80
